createdAt,value
2022-11-17T00:00:45.017Z,11.05
2022-11-17T00:03:16.016Z,10.40
2022-11-17T00:05:46.173Z,10.80
2022-11-17T00:08:14.636Z,14.93
2022-11-17T00:10:42.884Z,14.15
2022-11-17T00:13:37.714Z,10.35
2022-11-17T00:16:06.885Z,10.45
2022-11-17T00:18:57.933Z,12.65
2022-11-17T00:21:28.928Z,9.95
2022-11-17T00:23:57.932Z,7.35
2022-11-17T00:26:28.190Z,11.27
2022-11-17T00:28:58.989Z,6.75
2022-11-17T00:31:47.115Z,6.38
2022-11-17T00:34:18.108Z,9.02
2022-11-17T00:36:49.720Z,8.57
2022-11-17T00:39:20.190Z,11.75
2022-11-17T00:41:48.452Z,6.22
2022-11-17T00:44:17.430Z,8.70
2022-11-17T00:46:46.094Z,5.03
2022-11-17T00:49:14.994Z,5.22
2022-11-17T00:51:43.934Z,5.93
2022-11-17T00:54:15.457Z,5.55
2022-11-17T00:56:43.780Z,6.72
2022-11-17T00:59:12.337Z,6.32
2022-11-17T01:01:41.622Z,6.40
2022-11-17T01:04:10.322Z,6.93
2022-11-17T01:06:41.629Z,8.68
2022-11-17T01:09:15.525Z,4.47
2022-11-17T01:11:44.286Z,4.97
2022-11-17T01:14:16.401Z,5.03
2022-11-17T01:16:45.808Z,5.28
2022-11-17T01:19:15.932Z,3.90
2022-11-17T01:21:44.958Z,5.25
2022-11-17T01:24:17.292Z,8.82
2022-11-17T01:26:47.146Z,4.15
2022-11-17T01:29:18.040Z,6.18
2022-11-17T01:31:51.048Z,4.28
2022-11-17T01:34:19.850Z,4.65
2022-11-17T01:37:05.500Z,4.70
2022-11-17T01:39:35.220Z,4.22
2022-11-17T01:42:05.850Z,4.38
2022-11-17T01:45:02.961Z,5.93
2022-11-17T01:47:43.946Z,6.38
2022-11-17T01:50:26.495Z,5.00
2022-11-17T01:52:59.536Z,5.85
2022-11-17T01:55:36.951Z,6.60
2022-11-17T01:58:10.153Z,6.20
2022-11-17T02:00:38.659Z,6.25
2022-11-17T02:03:07.149Z,9.73
2022-11-17T02:05:44.675Z,4.97
2022-11-17T02:08:13.313Z,10.27
2022-11-17T02:10:48.604Z,8.07
2022-11-17T02:13:20.459Z,5.70
2022-11-17T02:15:49.070Z,4.57
2022-11-17T02:18:18.380Z,7.60
2022-11-17T02:21:09.050Z,6.43
2022-11-17T02:24:13.944Z,4.57
2022-11-17T02:27:40.001Z,8.25
2022-11-17T02:30:11.938Z,7.13
2022-11-17T02:32:50.835Z,7.88
2022-11-17T02:35:26.970Z,10.63
2022-11-17T02:38:09.766Z,6.63
2022-11-17T02:40:44.961Z,9.32
2022-11-17T02:43:35.937Z,8.68
2022-11-17T02:46:08.275Z,9.45
2022-11-17T02:48:40.191Z,10.82
2022-11-17T02:51:16.996Z,7.55
2022-11-17T02:53:45.264Z,9.48
2022-11-17T02:56:13.448Z,9.27
2022-11-17T02:58:43.065Z,8.80
2022-11-17T03:01:39.008Z,11.10
2022-11-17T03:04:30.092Z,10.70
2022-11-17T03:07:15.056Z,10.13
2022-11-17T03:09:51.277Z,7.57
2022-11-17T03:12:26.072Z,7.72
2022-11-17T03:15:03.342Z,9.35
2022-11-17T03:17:38.913Z,9.68
2022-11-17T03:20:14.929Z,7.97
2022-11-17T03:22:51.505Z,12.18
2022-11-17T03:25:23.143Z,11.38
2022-11-17T03:27:57.065Z,9.18
2022-11-17T03:30:27.030Z,8.90
2022-11-17T03:33:05.159Z,5.18
2022-11-17T03:35:37.721Z,7.45
2022-11-17T03:38:11.741Z,6.97
2022-11-17T03:40:44.035Z,10.00
2022-11-17T03:43:15.142Z,10.77
2022-11-17T03:45:50.253Z,8.57
2022-11-17T03:48:24.050Z,10.45
2022-11-17T03:50:58.211Z,9.38
2022-11-17T03:53:26.562Z,11.25
2022-11-17T03:56:03.138Z,9.55
2022-11-17T03:58:36.109Z,10.90
2022-11-17T04:01:09.151Z,9.23
2022-11-17T04:03:38.241Z,8.95
2022-11-17T04:06:07.279Z,10.98
2022-11-17T04:08:35.570Z,7.68
2022-11-17T04:11:21.329Z,12.38
2022-11-17T04:14:07.289Z,11.10
2022-11-17T04:16:36.872Z,11.65
2022-11-17T04:19:05.102Z,11.93
2022-11-17T04:21:33.417Z,11.02
2022-11-17T04:24:01.735Z,10.13
2022-11-17T04:26:47.606Z,7.28
2022-11-17T04:29:16.041Z,7.85
2022-11-17T04:31:45.600Z,8.63
2022-11-17T04:34:13.864Z,6.38
2022-11-17T04:36:46.454Z,9.73
2022-11-17T04:39:16.624Z,6.07
2022-11-17T04:42:03.314Z,6.55
2022-11-17T04:44:33.213Z,8.38
2022-11-17T04:47:03.624Z,5.47
2022-11-17T04:49:33.726Z,5.90
2022-11-17T04:52:02.480Z,7.53
2022-11-17T04:54:30.767Z,7.07
2022-11-17T04:56:59.009Z,8.80
2022-11-17T04:59:27.205Z,5.88
2022-11-17T05:01:55.485Z,5.32
2022-11-17T05:04:41.747Z,6.22
2022-11-17T05:07:10.592Z,9.35
2022-11-17T05:09:38.883Z,8.25
2022-11-17T05:12:25.220Z,9.35
2022-11-17T05:14:53.502Z,7.57
2022-11-17T05:17:20.730Z,9.05
2022-11-17T05:19:50.344Z,8.18
2022-11-17T05:22:38.885Z,7.70
2022-11-17T05:25:08.788Z,8.10
2022-11-17T05:27:37.734Z,7.68
2022-11-17T05:30:09.661Z,7.95
2022-11-17T05:32:37.893Z,8.27
2022-11-17T05:35:08.957Z,9.75
2022-11-17T05:37:37.159Z,8.48
2022-11-17T05:40:06.534Z,8.60
2022-11-17T05:42:35.909Z,12.18
2022-11-17T05:45:04.263Z,8.98
2022-11-17T05:47:32.490Z,7.95
2022-11-17T05:50:00.699Z,10.70
2022-11-17T05:52:30.322Z,7.85
2022-11-17T05:54:58.516Z,10.80
2022-11-17T05:57:32.059Z,10.15
2022-11-17T06:00:04.991Z,11.38
2022-11-17T06:02:47.073Z,7.15
2022-11-17T06:05:20.014Z,6.63
2022-11-17T06:07:50.283Z,9.32
2022-11-17T06:10:18.971Z,9.83
2022-11-17T06:12:47.441Z,8.23
2022-11-17T06:15:15.901Z,9.45
2022-11-17T06:17:50.763Z,7.78
2022-11-17T06:20:23.061Z,12.13
2022-11-17T06:22:53.008Z,6.45
2022-11-17T06:25:21.978Z,11.35
2022-11-17T06:27:52.229Z,7.35
2022-11-17T06:30:21.282Z,5.60
2022-11-17T06:32:51.160Z,7.60
2022-11-17T06:35:19.485Z,7.28
2022-11-17T06:37:47.689Z,7.82
2022-11-17T06:40:18.708Z,8.57
2022-11-17T06:43:00.859Z,7.22
2022-11-17T06:45:29.085Z,7.35
2022-11-17T06:47:57.252Z,8.55
2022-11-17T06:50:25.466Z,7.65
2022-11-17T06:52:57.690Z,6.28
2022-11-17T06:55:27.999Z,5.65
2022-11-17T06:58:01.260Z,7.78
2022-11-17T07:00:30.787Z,6.60
2022-11-17T07:03:03.544Z,9.95
2022-11-17T07:05:33.027Z,6.13
2022-11-17T07:08:02.979Z,5.35
2022-11-17T07:10:33.720Z,7.10
2022-11-17T07:13:01.988Z,6.22
2022-11-17T07:15:30.675Z,6.60
2022-11-17T07:17:59.525Z,7.78
2022-11-17T07:20:27.948Z,9.23
2022-11-17T07:23:00.921Z,6.28
2022-11-17T07:25:29.142Z,7.28
2022-11-17T07:28:02.262Z,6.55
2022-11-17T07:30:30.874Z,9.48
2022-11-17T07:33:00.308Z,10.30
2022-11-17T07:35:29.123Z,8.45
2022-11-17T07:38:01.327Z,7.82
2022-11-17T07:40:30.124Z,8.18
2022-11-17T07:42:58.727Z,10.05
2022-11-17T07:45:31.896Z,6.43
2022-11-17T07:48:04.546Z,7.22
2022-11-17T07:50:33.560Z,8.85
2022-11-17T07:53:01.899Z,8.77
2022-11-17T07:55:30.292Z,9.50
2022-11-17T07:58:00.344Z,7.78
2022-11-17T08:00:33.620Z,8.75
2022-11-17T08:03:03.655Z,12.68
2022-11-17T08:05:32.309Z,10.70
2022-11-17T08:08:01.499Z,10.10
2022-11-17T08:10:31.383Z,9.77
2022-11-17T08:13:00.962Z,14.50
2022-11-17T08:15:31.653Z,9.80
2022-11-17T08:20:30.915Z,14.13
2022-11-17T08:22:59.657Z,13.80
2022-11-17T08:25:28.737Z,18.98
2022-11-17T08:27:57.931Z,11.48
2022-11-17T08:30:28.614Z,8.10
2022-11-17T08:32:58.289Z,10.77
2022-11-17T08:35:30.680Z,10.32
2022-11-17T08:38:01.437Z,13.02
2022-11-17T08:40:29.664Z,10.88
2022-11-17T08:43:01.208Z,7.22
2022-11-17T08:45:30.464Z,11.48
2022-11-17T08:48:00.255Z,9.98
2022-11-17T08:50:29.073Z,9.50
2022-11-17T08:52:57.444Z,8.73
2022-11-17T08:55:27.212Z,9.55
2022-11-17T08:57:55.560Z,7.13
2022-11-17T09:00:24.405Z,8.70
2022-11-17T09:02:52.654Z,8.05
2022-11-17T09:05:22.241Z,7.38
2022-11-17T09:07:50.755Z,8.98
2022-11-17T09:10:19.499Z,7.88
2022-11-17T09:12:47.830Z,6.47
2022-11-17T09:15:16.440Z,8.50
2022-11-17T09:17:47.742Z,6.80
2022-11-17T09:20:16.983Z,10.15
2022-11-17T09:22:46.918Z,11.65
2022-11-17T09:25:16.898Z,9.35
2022-11-17T09:27:45.156Z,8.38
2022-11-17T09:30:14.388Z,10.30
2022-11-17T09:32:42.735Z,10.73
2022-11-17T09:35:11.190Z,10.75
2022-11-17T09:37:39.451Z,8.18
2022-11-17T09:40:15.768Z,11.95
2022-11-17T09:42:44.762Z,10.88
2022-11-17T09:45:19.468Z,12.40
2022-11-17T09:48:06.988Z,13.98
2022-11-17T09:50:42.283Z,15.30
2022-11-17T09:53:16.872Z,12.48
2022-11-17T09:55:50.776Z,11.00
2022-11-17T09:58:31.188Z,12.02
2022-11-17T10:00:59.704Z,11.35
2022-11-17T10:03:30.549Z,11.90
2022-11-17T10:06:00.772Z,13.43
2022-11-17T10:08:38.075Z,12.73
2022-11-17T10:11:28.334Z,10.55
2022-11-17T10:13:56.603Z,11.27
2022-11-17T10:16:24.968Z,12.40
2022-11-17T10:18:53.364Z,10.15
2022-11-17T10:21:21.631Z,13.88
2022-11-17T10:23:58.214Z,12.98
2022-11-17T10:26:28.248Z,10.75
2022-11-17T10:29:08.983Z,11.23
2022-11-17T10:31:45.881Z,21.15
2022-11-17T10:34:37.015Z,11.80
2022-11-17T10:37:30.102Z,12.77
2022-11-17T10:40:23.624Z,7.78
2022-11-17T10:43:19.215Z,11.93
2022-11-17T10:45:48.722Z,9.88
2022-11-17T10:48:29.419Z,11.38
2022-11-17T10:53:44.444Z,10.80
2022-11-17T10:56:17.080Z,11.82
2022-11-17T10:59:13.683Z,8.60
2022-11-17T11:01:44.571Z,9.27
2022-11-17T11:04:31.785Z,12.85
2022-11-17T11:07:15.197Z,10.70
2022-11-17T11:09:50.950Z,9.20
2022-11-17T11:12:26.014Z,9.38
2022-11-17T11:14:57.771Z,6.88
2022-11-17T11:17:29.838Z,12.02
2022-11-17T11:19:58.506Z,8.10
2022-11-17T11:22:38.110Z,14.00
2022-11-17T11:25:30.715Z,12.40
2022-11-17T11:28:22.076Z,14.98
2022-11-17T11:31:06.243Z,9.75
2022-11-17T11:33:39.601Z,9.50
2022-11-17T11:36:29.163Z,12.57
2022-11-17T11:39:02.840Z,9.10
2022-11-17T11:42:08.283Z,10.32
2022-11-17T11:45:02.430Z,9.25
2022-11-17T11:47:53.975Z,10.35
2022-11-17T11:50:26.255Z,10.23
2022-11-17T11:53:02.154Z,9.07
2022-11-17T11:55:35.383Z,7.85
2022-11-17T11:58:14.047Z,10.77
2022-11-17T12:00:44.157Z,9.45
2022-11-17T12:03:26.137Z,9.10
2022-11-17T12:06:28.920Z,9.63
2022-11-17T12:09:15.423Z,8.38
2022-11-17T12:12:02.689Z,8.10
2022-11-17T12:14:32.747Z,9.38
2022-11-17T12:17:23.371Z,10.63
2022-11-17T12:19:59.633Z,15.95
2022-11-17T12:23:00.840Z,8.10
2022-11-17T12:25:32.649Z,11.98
2022-11-17T12:28:29.524Z,12.13
2022-11-17T12:31:02.691Z,11.15
2022-11-17T12:34:22.791Z,10.90
2022-11-17T12:37:31.073Z,6.55
2022-11-17T12:40:02.695Z,9.63
2022-11-17T12:42:32.331Z,5.53
2022-11-17T12:45:12.300Z,9.05
2022-11-17T12:47:44.170Z,10.32
2022-11-17T12:50:42.008Z,11.90
2022-11-17T12:53:43.258Z,12.23
2022-11-17T12:56:48.463Z,9.23
2022-11-17T12:59:58.881Z,10.43
2022-11-17T13:03:02.818Z,8.00
2022-11-17T13:05:31.755Z,8.38
2022-11-17T13:08:23.872Z,12.90
2022-11-17T13:10:53.375Z,12.70
2022-11-17T13:13:25.276Z,15.85
2022-11-17T13:15:55.580Z,20.33
2022-11-17T13:18:34.029Z,11.27
2022-11-17T13:21:03.335Z,11.45
2022-11-17T13:23:34.583Z,10.45
2022-11-17T13:26:20.992Z,13.10
2022-11-17T13:28:50.842Z,12.57
2022-11-17T13:31:22.188Z,8.87
2022-11-17T13:34:03.631Z,10.35
2022-11-17T13:36:31.892Z,12.25
2022-11-17T13:39:02.827Z,10.27
2022-11-17T13:41:38.821Z,14.52
2022-11-17T13:44:14.164Z,10.32
2022-11-17T13:46:42.676Z,5.97
2022-11-17T13:49:34.289Z,13.82
2022-11-17T13:52:03.068Z,10.73
2022-11-17T13:54:33.646Z,11.52
2022-11-17T13:57:08.147Z,12.05
2022-11-17T13:59:39.729Z,10.80
2022-11-17T14:02:26.896Z,10.05
2022-11-17T14:05:23.872Z,8.95
2022-11-17T14:07:53.764Z,15.68
2022-11-17T14:10:33.123Z,16.83
2022-11-17T14:13:23.052Z,15.00
2022-11-17T14:15:58.599Z,9.30
2022-11-17T14:18:34.316Z,10.25
2022-11-17T14:21:20.509Z,9.68
2022-11-17T14:23:48.971Z,9.80
2022-11-17T14:26:24.592Z,10.35
2022-11-17T14:28:55.215Z,11.10
2022-11-17T14:31:23.519Z,10.38
2022-11-17T14:33:51.792Z,8.57
2022-11-17T14:36:20.260Z,11.13
2022-11-17T14:38:49.440Z,19.55
2022-11-17T14:41:19.092Z,11.30
2022-11-17T14:43:49.472Z,10.30
2022-11-17T14:46:24.273Z,11.93
2022-11-17T14:48:54.001Z,10.30
2022-11-17T14:51:23.343Z,14.33
2022-11-17T14:53:51.653Z,9.40
2022-11-17T14:56:22.408Z,9.25
2022-11-17T15:01:28.353Z,9.43
2022-11-17T15:03:58.325Z,12.55
2022-11-17T15:06:26.888Z,12.48
2022-11-17T15:08:57.531Z,10.93
2022-11-17T15:11:27.880Z,11.20
2022-11-17T15:14:03.047Z,9.25
2022-11-17T15:16:31.392Z,11.85
2022-11-17T15:19:00.388Z,9.40
2022-11-17T15:21:28.701Z,10.63
2022-11-17T15:23:57.208Z,13.70
2022-11-17T15:26:25.516Z,10.70
2022-11-17T15:28:53.867Z,12.98
2022-11-17T15:31:23.454Z,10.75
2022-11-17T15:33:51.802Z,10.25
2022-11-17T15:36:23.123Z,10.23
2022-11-17T15:38:53.291Z,13.77
2022-11-17T15:41:22.031Z,10.75
2022-11-17T15:43:50.321Z,13.45
2022-11-17T15:46:20.344Z,10.50
2022-11-17T15:48:52.505Z,10.73
2022-11-17T15:51:23.435Z,10.88
2022-11-17T15:53:54.096Z,8.48
2022-11-17T15:56:25.837Z,14.27
2022-11-17T15:58:58.005Z,10.70
2022-11-17T16:01:32.025Z,11.15
2022-11-17T16:04:03.904Z,12.57
2022-11-17T16:06:33.874Z,13.75
2022-11-17T16:09:02.356Z,14.60
2022-11-17T16:11:31.065Z,10.63
2022-11-17T16:14:00.738Z,13.55
2022-11-17T16:16:31.089Z,12.32
2022-11-17T16:19:01.052Z,11.65
2022-11-17T16:21:29.669Z,14.13
2022-11-17T16:24:00.901Z,13.68
2022-11-17T16:26:30.691Z,16.05
2022-11-17T16:29:00.683Z,11.55
2022-11-17T16:31:32.289Z,12.60
2022-11-17T16:34:05.166Z,10.82
2022-11-17T16:36:37.090Z,12.43
2022-11-17T16:39:07.818Z,12.80
2022-11-17T16:41:38.811Z,12.70
2022-11-17T16:44:11.789Z,13.50
2022-11-17T16:46:43.064Z,13.70
2022-11-17T16:49:15.983Z,10.23
2022-11-17T16:51:49.018Z,11.27
2022-11-17T16:54:18.136Z,12.18
2022-11-17T16:56:46.880Z,13.77
2022-11-17T16:59:16.060Z,12.20
2022-11-17T17:01:44.928Z,15.02
2022-11-17T17:04:14.493Z,9.32
2022-11-17T17:06:45.109Z,13.82
2022-11-17T17:09:15.770Z,10.07
2022-11-17T17:11:44.368Z,13.70
2022-11-17T17:14:15.259Z,11.18
2022-11-17T17:16:44.134Z,13.25
2022-11-17T17:19:16.353Z,16.40
2022-11-17T17:21:45.644Z,19.17
2022-11-17T17:24:14.184Z,13.02
2022-11-17T17:26:42.878Z,12.98
2022-11-17T17:29:12.280Z,12.90
2022-11-17T17:31:43.164Z,13.95
2022-11-17T17:34:14.691Z,11.43
2022-11-17T17:36:42.989Z,12.85
2022-11-17T17:39:15.322Z,15.65
2022-11-17T17:41:44.522Z,9.50
2022-11-17T17:44:16.898Z,13.82
2022-11-17T17:46:46.046Z,12.95
2022-11-17T17:49:16.045Z,10.55
2022-11-17T17:51:45.256Z,12.38
2022-11-17T17:54:17.857Z,11.10
2022-11-17T17:56:46.932Z,13.60
2022-11-17T17:59:15.956Z,12.30
2022-11-17T18:01:46.180Z,11.80
2022-11-17T18:04:17.002Z,10.90
2022-11-17T18:06:48.046Z,13.10
2022-11-17T18:09:19.386Z,17.95
2022-11-17T18:11:50.023Z,16.15
2022-11-17T18:14:23.939Z,18.08
2022-11-17T18:16:53.074Z,13.77
2022-11-17T18:19:25.776Z,14.75
2022-11-17T18:21:56.794Z,13.05
2022-11-17T18:24:25.261Z,16.60
2022-11-17T18:26:53.540Z,17.52
2022-11-17T18:29:21.925Z,16.58
2022-11-17T18:31:50.640Z,19.02
2022-11-17T18:34:23.084Z,19.42
2022-11-17T18:36:52.603Z,13.48
2022-11-17T18:39:21.285Z,14.32
2022-11-17T18:41:49.783Z,10.65
2022-11-17T18:44:19.648Z,16.20
2022-11-17T18:46:48.328Z,21.48
2022-11-17T18:49:17.023Z,13.98
2022-11-17T18:51:46.931Z,16.60
2022-11-17T18:54:15.508Z,15.77
2022-11-17T18:56:44.573Z,15.35
2022-11-17T18:59:13.283Z,20.30
2022-11-17T19:01:43.508Z,14.82
2022-11-17T19:04:14.684Z,13.32
2022-11-17T19:06:43.221Z,13.15
2022-11-17T19:09:14.056Z,17.70
2022-11-17T19:11:42.984Z,15.98
2022-11-17T19:14:11.427Z,19.02
2022-11-17T19:16:44.483Z,15.95
2022-11-17T19:19:15.206Z,15.48
2022-11-17T19:21:44.212Z,18.48
2022-11-17T19:24:15.274Z,16.02
2022-11-17T19:26:43.772Z,14.57
2022-11-17T19:29:17.295Z,16.23
2022-11-17T19:31:46.740Z,17.77
2022-11-17T19:34:15.582Z,16.92
2022-11-17T19:36:45.267Z,17.55
2022-11-17T19:39:17.064Z,12.60
2022-11-17T19:41:47.579Z,12.63
2022-11-17T19:44:16.064Z,16.38
2022-11-17T19:46:44.481Z,15.02
2022-11-17T19:49:14.012Z,16.10
2022-11-17T19:51:42.822Z,14.83
2022-11-17T19:54:14.724Z,13.35
2022-11-17T19:56:43.056Z,16.33
2022-11-17T19:59:15.980Z,14.50
2022-11-17T20:01:45.426Z,10.40
2022-11-17T20:04:13.902Z,13.15
2022-11-17T20:06:42.257Z,11.77
2022-11-17T20:09:14.530Z,12.13
2022-11-17T20:11:43.724Z,16.67
2022-11-17T20:14:12.150Z,15.57
2022-11-17T20:16:40.567Z,13.55
2022-11-17T20:19:14.256Z,14.80
2022-11-17T20:21:42.792Z,13.88
2022-11-17T20:24:11.437Z,10.25
2022-11-17T20:26:43.080Z,12.60
2022-11-17T20:29:11.435Z,12.45
2022-11-17T20:31:39.745Z,9.85
2022-11-17T20:34:08.115Z,10.25
2022-11-17T20:36:36.389Z,13.50
2022-11-17T20:39:07.069Z,10.68
2022-11-17T20:41:35.712Z,7.70
2022-11-17T20:44:23.593Z,9.02
2022-11-17T20:46:53.007Z,7.15
2022-11-17T20:49:21.266Z,9.30
2022-11-17T20:51:49.735Z,9.05
2022-11-17T20:54:18.024Z,10.35
2022-11-17T20:56:46.254Z,6.50
2022-11-17T20:59:20.017Z,10.98
2022-11-17T21:01:50.237Z,6.72
2022-11-17T21:04:18.649Z,7.27
2022-11-17T21:06:47.098Z,7.30
2022-11-17T21:09:15.621Z,8.07
2022-11-17T21:11:59.192Z,8.80
2022-11-17T21:14:30.660Z,9.85
2022-11-17T21:17:00.482Z,11.57
2022-11-17T21:19:29.296Z,12.32
2022-11-17T21:21:57.713Z,10.73
2022-11-17T21:24:27.750Z,7.18
2022-11-17T21:26:56.985Z,9.77
2022-11-17T21:29:25.236Z,9.52
2022-11-17T21:31:54.897Z,6.00
2022-11-17T21:34:23.327Z,12.93
2022-11-17T21:36:51.615Z,8.43
2022-11-17T21:39:19.867Z,9.95
2022-11-17T21:41:48.299Z,11.55
2022-11-17T21:44:16.848Z,15.60
2022-11-17T21:46:45.091Z,9.27
2022-11-17T21:49:14.893Z,10.38
2022-11-17T21:51:43.360Z,12.18
2022-11-17T21:54:11.664Z,10.05
2022-11-17T21:56:40.785Z,9.15
2022-11-17T21:59:14.201Z,8.38
2022-11-17T22:01:42.699Z,9.63
2022-11-17T22:04:15.677Z,8.73
2022-11-17T22:06:44.053Z,8.38
2022-11-17T22:09:12.347Z,10.32
2022-11-17T22:11:40.849Z,11.57
2022-11-17T22:14:12.687Z,8.77
2022-11-17T22:16:43.322Z,8.65
2022-11-17T22:19:14.609Z,8.75
2022-11-17T22:21:43.950Z,10.80
2022-11-17T22:24:13.487Z,7.82
2022-11-17T22:26:43.717Z,8.90
2022-11-17T22:29:15.345Z,7.55
2022-11-17T22:31:45.452Z,9.25
2022-11-17T22:34:16.473Z,9.17
2022-11-17T22:36:44.793Z,9.07
2022-11-17T22:39:13.279Z,9.00
2022-11-17T22:41:41.841Z,19.63
2022-11-17T22:44:14.544Z,8.70
2022-11-17T22:46:43.586Z,9.38
2022-11-17T22:49:12.207Z,9.13
2022-11-17T22:51:59.472Z,9.25
2022-11-17T22:54:28.256Z,12.35
2022-11-17T22:56:56.629Z,11.93
2022-11-17T22:59:25.007Z,12.32
2022-11-17T23:01:53.267Z,10.65
2022-11-17T23:04:23.016Z,10.10
2022-11-17T23:06:53.115Z,10.97
2022-11-17T23:09:21.525Z,11.63
2022-11-17T23:11:50.361Z,10.02
2022-11-17T23:14:18.705Z,9.43
2022-11-17T23:16:46.892Z,10.52
2022-11-17T23:19:16.271Z,7.00
2022-11-17T23:21:44.722Z,9.35
2022-11-17T23:24:14.796Z,7.90
2022-11-17T23:26:43.880Z,10.50
2022-11-17T23:29:12.148Z,7.72
2022-11-17T23:31:40.512Z,12.32
2022-11-17T23:34:10.577Z,8.18
2022-11-17T23:36:38.980Z,9.23
2022-11-17T23:39:07.183Z,7.97
2022-11-17T23:41:36.879Z,8.13
2022-11-17T23:44:05.641Z,8.20
2022-11-17T23:46:33.925Z,13.50
2022-11-17T23:49:02.477Z,10.52
2022-11-17T23:51:31.072Z,6.72
2022-11-17T23:54:00.805Z,8.13
2022-11-17T23:56:33.625Z,9.13
2022-11-17T23:59:03.617Z,9.48
